Aeroporto :
LOGIN :

Iscrizione | Disclaimer

   EN    FR    IT 

 










Sommario :    VFR   VFR Marginale   IFR   IFR Intensivo   IFR Molto Intensivo
Visibilità : 
Base nubi : 
>= 8 km
>= 3000ft
5 / 8 km
1000 / 3000 ft
1500m / 5 km
500 / 1000 ft
800 / 1500m
200 / 500 ft
< 800m
< 200 ft
Simboli :   Temporali  Nebbia  Neve Forte  Precipitazioni Forti  Vento > 20 kt
SIGMETs :   Varie  Temporali  Ghiacco  Turbolenza  Onda orograficha  Ceneri Vulcaniche






- Altitudine del aeroporto : 287 ft
- Codice IATA : IAR


UUDL - Tunoshna

ULTIMO METAR :
  • 020130Z 05003MPS CAVOK 07/02 Q1019 R23/010060 NOSIG RMK QFE756

METARs OBSOLETI :
  • 020100Z 04003MPS CAVOK 07/02 Q1019 R23/010060 NOSIG RMK QFE756
  • 020030Z 04003MPS CAVOK 07/02 Q1019 R23/010060 NOSIG RMK QFE756
  • 020000Z 05003MPS CAVOK 06/02 Q1019 R23/010060 NOSIG RMK QFE756
  • 012330Z 05003MPS CAVOK 06/02 Q1019 R23/010060 NOSIG RMK QFE756
  • 012300Z 04002MPS CAVOK 06/02 Q1019 R23/010060 NOSIG RMK QFE756

TAF TAF UUDL
Valido dal 02 a 00 ore il 03 a 00 ore UTC


012257Z 0200/0224 04003MPS 9999 BKN040 TX16/0212Z TN05/0201Z
TEMPO 0200/0206 BKN016
TEMPO 0206/0218 07008MPS



MetMap, La meteo Aeronautica in un colpo d'occhio ! - Copyright ORBIFLY Dicembre 2007 - Disclaimer

ORBIFLY MET'MAP TEAM :

Programmazione e sviluppo : Alexandra Zaïnal
Concezione : Baudouin d'Aumeries
Aiuto per la programmazione : Marc-Olivier Méhu
Supporto tecnico e logistico : Manuel Goepfert
Aiuto per la traduzione : Arnaldo La Scala

Contatto : metmap@orbifly.com




FONTI E CREDITI :

   NOAA